createdAt,value
2018-12-02T00:00:41.962Z,19.01
2018-12-02T00:01:41.931Z,18.99
2018-12-02T00:02:42.042Z,18.99
2018-12-02T00:03:41.902Z,18.99
2018-12-02T00:04:41.980Z,18.99
2018-12-02T00:05:42.078Z,18.99
2018-12-02T00:06:41.927Z,18.98
2018-12-02T00:07:42.896Z,18.98
2018-12-02T00:08:42.086Z,18.98
2018-12-02T00:09:41.898Z,18.98
2018-12-02T00:10:41.943Z,18.98
2018-12-02T00:11:41.990Z,18.97
2018-12-02T00:12:41.830Z,18.97
2018-12-02T00:13:41.793Z,18.97
2018-12-02T00:14:41.826Z,18.96
2018-12-02T00:15:42.066Z,18.96
2018-12-02T00:16:41.968Z,18.96
2018-12-02T00:17:41.812Z,18.95
2018-12-02T00:18:42.236Z,18.94
2018-12-02T00:19:41.788Z,18.95
2018-12-02T00:20:41.998Z,18.95
2018-12-02T00:21:41.739Z,18.94
2018-12-02T00:22:41.774Z,18.93
2018-12-02T00:23:42.122Z,18.93
2018-12-02T00:24:41.936Z,18.93
2018-12-02T00:25:42.457Z,18.93
2018-12-02T00:26:42.217Z,18.93
2018-12-02T00:27:42.224Z,18.92
2018-12-02T00:28:41.748Z,18.92
2018-12-02T00:29:42.009Z,18.91
2018-12-02T00:30:41.928Z,18.92
2018-12-02T00:31:42.622Z,18.91
2018-12-02T00:32:41.975Z,18.91
2018-12-02T00:33:41.850Z,18.91
2018-12-02T00:34:41.885Z,18.9
2018-12-02T00:35:42.199Z,18.9
2018-12-02T00:36:41.919Z,18.9
2018-12-02T00:37:41.833Z,18.9
2018-12-02T00:38:42.055Z,18.9
2018-12-02T00:39:41.741Z,18.88
2018-12-02T00:40:42.025Z,18.88
2018-12-02T00:41:41.958Z,18.88
2018-12-02T00:42:41.972Z,18.88
2018-12-02T00:43:41.953Z,18.86
2018-12-02T00:44:42.338Z,18.87
2018-12-02T00:45:41.836Z,18.87
2018-12-02T00:46:42.139Z,18.87
2018-12-02T00:47:41.966Z,18.86
2018-12-02T00:48:41.803Z,18.86
2018-12-02T00:49:41.878Z,18.85
2018-12-02T00:50:42.056Z,18.84
2018-12-02T00:51:41.802Z,18.85
2018-12-02T00:52:42.138Z,18.85
2018-12-02T00:53:41.733Z,18.85
2018-12-02T00:54:42.124Z,18.84
2018-12-02T00:55:41.905Z,18.85
2018-12-02T00:56:41.948Z,18.83
2018-12-02T00:57:42.050Z,18.83
2018-12-02T00:58:41.781Z,18.83
2018-12-02T00:59:41.891Z,18.82
2018-12-02T01:00:41.839Z,18.82
2018-12-02T01:01:42.070Z,18.82
2018-12-02T01:02:41.797Z,18.81
2018-12-02T01:03:41.698Z,18.82
2018-12-02T01:04:41.976Z,18.82
2018-12-02T01:05:41.884Z,18.8
2018-12-02T01:06:41.978Z,18.79
2018-12-02T01:07:41.740Z,18.8
2018-12-02T01:08:41.929Z,18.8
2018-12-02T01:09:41.959Z,18.8
2018-12-02T01:10:41.778Z,18.8
2018-12-02T01:11:41.705Z,18.8
2018-12-02T01:12:41.834Z,18.78
2018-12-02T01:13:41.999Z,18.78
2018-12-02T01:14:41.777Z,18.78
2018-12-02T01:15:41.992Z,18.77
2018-12-02T01:16:41.810Z,18.77
2018-12-02T01:17:41.973Z,18.76
2018-12-02T01:18:41.768Z,18.77
2018-12-02T01:19:42.078Z,18.76
2018-12-02T01:20:41.831Z,18.76
2018-12-02T01:21:41.750Z,18.76
2018-12-02T01:22:41.680Z,18.76
2018-12-02T01:23:41.811Z,18.75
2018-12-02T01:24:42.021Z,18.75
2018-12-02T01:25:42.062Z,18.74
2018-12-02T01:26:42.215Z,18.74
2018-12-02T01:27:41.827Z,18.74
2018-12-02T01:28:41.984Z,18.75
2018-12-02T01:29:41.727Z,18.75
2018-12-02T01:30:42.146Z,18.74
2018-12-02T01:31:41.825Z,18.75
2018-12-02T01:32:41.831Z,18.74
2018-12-02T01:33:42.115Z,18.75
2018-12-02T01:34:42.068Z,18.73
2018-12-02T01:35:41.885Z,18.74
2018-12-02T01:36:42.623Z,18.73
2018-12-02T01:37:41.858Z,18.73
2018-12-02T01:38:41.803Z,18.73
2018-12-02T01:39:41.688Z,18.72
2018-12-02T01:40:41.698Z,18.72
2018-12-02T01:41:41.814Z,18.71
2018-12-02T01:42:41.911Z,18.71
2018-12-02T01:43:41.714Z,18.73
2018-12-02T01:44:42.059Z,18.71
2018-12-02T01:45:41.995Z,18.71
2018-12-02T01:46:41.816Z,18.71
2018-12-02T01:47:41.710Z,18.7
2018-12-02T01:48:41.691Z,18.69
2018-12-02T01:49:41.941Z,18.7
2018-12-02T01:50:41.773Z,18.7
2018-12-02T01:51:42.183Z,18.7
2018-12-02T01:52:42.067Z,18.7
2018-12-02T01:53:42.232Z,18.69
2018-12-02T01:54:41.720Z,18.68
2018-12-02T01:55:41.921Z,18.7
2018-12-02T01:56:42.040Z,18.68
2018-12-02T01:57:42.143Z,18.69
2018-12-02T01:58:41.913Z,18.68
2018-12-02T01:59:41.780Z,18.68
2018-12-02T02:00:41.849Z,18.68
2018-12-02T02:01:42.063Z,18.68
2018-12-02T02:02:41.956Z,18.67
2018-12-02T02:03:41.787Z,18.68
2018-12-02T02:04:41.836Z,18.67
2018-12-02T02:05:42.112Z,18.67
2018-12-02T02:06:41.732Z,18.66
2018-12-02T02:07:41.842Z,18.66
2018-12-02T02:08:41.811Z,18.64
2018-12-02T02:09:42.129Z,18.66
2018-12-02T02:10:41.720Z,18.65
2018-12-02T02:11:41.709Z,18.66
2018-12-02T02:12:42.161Z,18.65
2018-12-02T02:13:41.845Z,18.65
2018-12-02T02:14:41.886Z,18.65
2018-12-02T02:15:41.941Z,18.64
2018-12-02T02:16:42.309Z,18.63
2018-12-02T02:17:42.084Z,18.65
2018-12-02T02:18:42.114Z,18.64
2018-12-02T02:19:41.761Z,18.65
2018-12-02T02:20:41.747Z,18.64
2018-12-02T02:21:41.764Z,18.64
2018-12-02T02:22:41.936Z,18.64
2018-12-02T02:23:42.080Z,18.64
2018-12-02T02:24:42.037Z,18.64
2018-12-02T02:25:41.877Z,18.63
2018-12-02T02:26:41.976Z,18.63
2018-12-02T02:27:42.242Z,18.64
2018-12-02T02:28:41.860Z,18.64
2018-12-02T02:29:41.770Z,18.63
2018-12-02T02:30:41.722Z,18.62
2018-12-02T02:31:42.151Z,18.62
2018-12-02T02:32:41.908Z,18.62
2018-12-02T02:33:41.909Z,18.62
2018-12-02T02:34:42.436Z,18.61
2018-12-02T02:35:41.780Z,18.6
2018-12-02T02:36:42.153Z,18.6
2018-12-02T02:37:41.716Z,18.6
2018-12-02T02:38:41.769Z,18.6
2018-12-02T02:39:41.936Z,18.6
2018-12-02T02:40:41.771Z,18.6
2018-12-02T02:41:41.948Z,18.6
2018-12-02T02:42:41.771Z,18.59
2018-12-02T02:43:41.868Z,18.6
2018-12-02T02:44:41.742Z,18.59
2018-12-02T02:45:41.908Z,18.59
2018-12-02T02:46:41.738Z,18.58
2018-12-02T02:47:41.829Z,18.59
2018-12-02T02:48:41.706Z,18.59
2018-12-02T02:49:41.832Z,18.58
2018-12-02T02:50:41.979Z,18.58
2018-12-02T02:51:41.743Z,18.58
2018-12-02T02:52:42.092Z,18.57
2018-12-02T02:53:41.753Z,18.57
2018-12-02T02:54:41.781Z,18.56
2018-12-02T02:55:41.645Z,18.56
2018-12-02T02:56:41.664Z,18.57
2018-12-02T02:57:41.893Z,18.56
2018-12-02T02:58:41.854Z,18.56
2018-12-02T02:59:41.916Z,18.57
2018-12-02T03:00:41.715Z,18.56
2018-12-02T03:01:41.798Z,18.55
2018-12-02T03:02:41.662Z,18.57
2018-12-02T03:03:42.124Z,18.56
2018-12-02T03:04:42.019Z,18.56
2018-12-02T03:05:41.694Z,18.55
2018-12-02T03:06:42.232Z,18.55
2018-12-02T03:07:41.723Z,18.54
2018-12-02T03:08:42.781Z,18.54
2018-12-02T03:09:41.814Z,18.54
2018-12-02T03:10:42.170Z,18.54
2018-12-02T03:11:42.111Z,18.54
2018-12-02T03:12:42.176Z,18.54
2018-12-02T03:13:42.094Z,18.54
2018-12-02T03:14:42.761Z,18.54
2018-12-02T03:15:41.897Z,18.53
2018-12-02T03:16:41.808Z,18.52
2018-12-02T03:17:41.935Z,18.52
2018-12-02T03:18:41.919Z,18.51
2018-12-02T03:19:41.650Z,18.52
2018-12-02T03:20:41.537Z,18.52
2018-12-02T03:21:41.799Z,18.52
2018-12-02T03:22:42.001Z,18.52
2018-12-02T03:23:42.054Z,18.52
2018-12-02T03:24:42.485Z,18.51
2018-12-02T03:25:41.762Z,18.51
2018-12-02T03:26:41.712Z,18.51
2018-12-02T03:27:41.634Z,18.51
2018-12-02T03:28:41.988Z,18.51
2018-12-02T03:29:41.931Z,18.5
2018-12-02T03:30:42.083Z,18.49
2018-12-02T03:31:41.804Z,18.49
2018-12-02T03:32:41.936Z,18.5
2018-12-02T03:33:42.124Z,18.49
2018-12-02T03:34:41.648Z,18.49
2018-12-02T03:35:42.061Z,18.49
2018-12-02T03:36:41.633Z,18.49
2018-12-02T03:37:41.772Z,18.48
2018-12-02T03:38:42.083Z,18.47
2018-12-02T03:39:41.830Z,18.47
2018-12-02T03:40:41.904Z,18.48
2018-12-02T03:41:42.023Z,18.48
2018-12-02T03:42:42.261Z,18.48
2018-12-02T03:43:41.898Z,18.48
2018-12-02T03:44:41.821Z,18.47
2018-12-02T03:45:41.700Z,18.47
2018-12-02T03:46:41.882Z,18.46
2018-12-02T03:47:41.963Z,18.47
2018-12-02T03:48:41.686Z,18.47
2018-12-02T03:49:42.132Z,18.47
2018-12-02T03:50:42.191Z,18.47
2018-12-02T03:51:42.152Z,18.46
2018-12-02T03:52:41.888Z,18.48
2018-12-02T03:53:41.789Z,18.47
2018-12-02T03:54:42.065Z,18.47
2018-12-02T03:55:41.669Z,18.47
2018-12-02T03:56:42.306Z,18.46
2018-12-02T03:57:41.783Z,18.47
2018-12-02T03:58:41.929Z,18.46
2018-12-02T03:59:41.658Z,18.45
2018-12-02T04:00:42.163Z,18.45
2018-12-02T04:01:42.092Z,18.45
2018-12-02T04:02:42.011Z,18.45
2018-12-02T04:03:42.262Z,18.44
2018-12-02T04:04:41.746Z,18.43
2018-12-02T04:05:42.044Z,18.43
2018-12-02T04:06:41.937Z,18.44
2018-12-02T04:07:41.914Z,18.44
2018-12-02T04:08:41.685Z,18.43
2018-12-02T04:09:42.521Z,18.43
2018-12-02T04:10:41.613Z,18.43
2018-12-02T04:11:41.914Z,18.42
2018-12-02T04:12:42.177Z,18.44
2018-12-02T04:13:42.307Z,18.43
2018-12-02T04:14:42.206Z,18.43
2018-12-02T04:15:42.022Z,18.42
2018-12-02T04:16:41.897Z,18.43
2018-12-02T04:17:41.751Z,18.42
2018-12-02T04:18:41.571Z,18.42
2018-12-02T04:19:42.261Z,18.42
2018-12-02T04:20:42.036Z,18.41
2018-12-02T04:21:41.842Z,18.42
2018-12-02T04:22:41.687Z,18.41
2018-12-02T04:23:41.769Z,18.41
2018-12-02T04:24:42.745Z,18.42
2018-12-02T04:25:41.997Z,18.41
2018-12-02T04:26:41.627Z,18.41
2018-12-02T04:27:41.607Z,18.41
2018-12-02T04:28:41.847Z,18.41
2018-12-02T04:29:42.011Z,18.4
2018-12-02T04:30:41.817Z,18.39
2018-12-02T04:31:41.808Z,18.39
2018-12-02T04:32:41.809Z,18.38
2018-12-02T04:33:41.697Z,18.4
2018-12-02T04:34:41.720Z,18.39
2018-12-02T04:35:41.848Z,18.4
2018-12-02T04:36:41.657Z,18.39
2018-12-02T04:37:41.785Z,18.4
2018-12-02T04:38:41.777Z,18.39
2018-12-02T04:39:41.805Z,18.41
2018-12-02T04:40:41.742Z,18.4
2018-12-02T04:41:41.865Z,18.4
2018-12-02T04:42:41.588Z,18.41
2018-12-02T04:43:41.790Z,18.4
2018-12-02T04:44:41.969Z,18.4
2018-12-02T04:45:41.627Z,18.41
2018-12-02T04:46:42.137Z,18.42
2018-12-02T04:47:41.681Z,18.42
2018-12-02T04:48:42.129Z,18.43
2018-12-02T04:49:41.853Z,18.44
2018-12-02T04:50:42.063Z,18.44
2018-12-02T04:51:41.688Z,18.46
2018-12-02T04:52:42.171Z,18.46
2018-12-02T04:53:41.867Z,18.47
2018-12-02T04:54:41.744Z,18.46
2018-12-02T04:55:41.909Z,18.47
2018-12-02T04:56:41.642Z,18.48
2018-12-02T04:57:41.765Z,18.49
2018-12-02T04:58:41.644Z,18.5
2018-12-02T04:59:41.705Z,18.51
2018-12-02T05:00:41.955Z,18.53
2018-12-02T05:01:41.760Z,18.54
2018-12-02T05:02:42.438Z,18.55
2018-12-02T05:03:41.856Z,18.57
2018-12-02T05:04:42.239Z,18.58
2018-12-02T05:05:41.741Z,18.59
2018-12-02T05:06:41.854Z,18.6
2018-12-02T05:07:42.023Z,18.61
2018-12-02T05:08:41.978Z,18.63
2018-12-02T05:09:41.940Z,18.65
2018-12-02T05:10:41.756Z,18.66
2018-12-02T05:11:41.866Z,18.67
2018-12-02T05:12:43.183Z,18.69
2018-12-02T05:13:41.831Z,18.71
2018-12-02T05:14:41.588Z,18.72
2018-12-02T05:15:41.760Z,18.73
2018-12-02T05:16:41.976Z,18.74
2018-12-02T05:17:41.713Z,18.75
2018-12-02T05:18:42.160Z,18.77
2018-12-02T05:19:41.784Z,18.78
2018-12-02T05:20:41.871Z,18.8
2018-12-02T05:21:41.962Z,18.81
2018-12-02T05:22:41.783Z,18.82
2018-12-02T05:23:41.674Z,18.84
2018-12-02T05:24:41.794Z,18.85
2018-12-02T05:25:42.150Z,18.87
2018-12-02T05:26:41.625Z,18.88
2018-12-02T05:27:42.744Z,18.88
2018-12-02T05:28:41.627Z,18.9
2018-12-02T05:29:41.843Z,18.9
2018-12-02T05:30:41.637Z,18.93
2018-12-02T05:31:42.165Z,18.94
2018-12-02T05:32:42.029Z,18.95
2018-12-02T05:33:42.162Z,18.96
2018-12-02T05:34:41.842Z,18.97
2018-12-02T05:35:41.734Z,18.98
2018-12-02T05:36:41.974Z,19
2018-12-02T05:37:41.610Z,19.01
2018-12-02T05:38:41.878Z,19.02
2018-12-02T05:39:41.593Z,19.03
2018-12-02T05:40:41.929Z,19.05
2018-12-02T05:41:41.979Z,19.06
2018-12-02T05:42:41.656Z,19.07
2018-12-02T05:43:41.990Z,19.08
2018-12-02T05:44:42.279Z,19.09
2018-12-02T05:45:42.059Z,19.1
2018-12-02T05:46:41.787Z,19.12
2018-12-02T05:47:41.777Z,19.13
2018-12-02T05:48:41.673Z,19.15
2018-12-02T05:49:41.622Z,19.15
2018-12-02T05:50:42.300Z,19.17
2018-12-02T05:51:41.750Z,19.17
2018-12-02T05:52:41.765Z,19.18
2018-12-02T05:53:41.728Z,19.18
2018-12-02T05:54:42.133Z,19.18
2018-12-02T05:55:41.716Z,19.2
2018-12-02T05:56:41.729Z,19.2
2018-12-02T05:57:41.565Z,19.21
2018-12-02T05:58:41.577Z,19.21
2018-12-02T05:59:41.808Z,19.22
2018-12-02T06:00:41.697Z,19.22
2018-12-02T06:01:41.852Z,19.24
2018-12-02T06:02:41.708Z,19.23
2018-12-02T06:03:41.842Z,19.24
2018-12-02T06:04:41.693Z,19.25
2018-12-02T06:05:41.760Z,19.25
2018-12-02T06:06:41.608Z,19.26
2018-12-02T06:07:41.721Z,19.27
2018-12-02T06:08:42.225Z,19.27
2018-12-02T06:09:41.643Z,19.29
2018-12-02T06:10:41.763Z,19.29
2018-12-02T06:11:43.830Z,19.3
2018-12-02T06:12:41.808Z,19.3
2018-12-02T06:13:41.831Z,19.31
2018-12-02T06:14:41.781Z,19.32
2018-12-02T06:15:41.859Z,19.33
2018-12-02T06:16:41.566Z,19.33
2018-12-02T06:17:41.780Z,19.34
2018-12-02T06:18:41.726Z,19.34
2018-12-02T06:19:41.825Z,19.35
2018-12-02T06:20:41.932Z,19.35
2018-12-02T06:21:42.080Z,19.36
2018-12-02T06:22:41.567Z,19.37
2018-12-02T06:23:41.655Z,19.38
2018-12-02T06:24:41.792Z,19.37
2018-12-02T06:25:46.407Z,19.38
2018-12-02T06:26:41.844Z,19.38
2018-12-02T06:27:41.665Z,19.39
2018-12-02T06:28:41.724Z,19.41
2018-12-02T06:29:41.953Z,19.4
2018-12-02T06:30:41.712Z,19.41
2018-12-02T06:31:42.001Z,19.41
2018-12-02T06:32:41.600Z,19.41
2018-12-02T06:33:42.091Z,19.42
2018-12-02T06:34:41.979Z,19.42
2018-12-02T06:35:41.816Z,19.44
2018-12-02T06:36:41.828Z,19.44
2018-12-02T06:37:41.838Z,19.45
2018-12-02T06:38:41.786Z,19.45
2018-12-02T06:39:41.645Z,19.46
2018-12-02T06:40:42.011Z,19.46
2018-12-02T06:41:41.723Z,19.47
2018-12-02T06:42:41.855Z,19.48
2018-12-02T06:43:41.589Z,19.49
2018-12-02T06:44:41.867Z,19.49
2018-12-02T06:45:41.708Z,19.5
2018-12-02T06:46:41.722Z,19.51
2018-12-02T06:47:41.665Z,19.51
2018-12-02T06:48:41.771Z,19.52
2018-12-02T06:49:41.849Z,19.52
2018-12-02T06:50:41.769Z,19.52
2018-12-02T06:51:42.004Z,19.53
2018-12-02T06:52:42.209Z,19.53
2018-12-02T06:53:41.794Z,19.53
2018-12-02T06:54:41.569Z,19.54
2018-12-02T06:55:42.076Z,19.54
2018-12-02T06:56:42.038Z,19.54
2018-12-02T06:57:41.657Z,19.55
2018-12-02T06:58:42.057Z,19.55
2018-12-02T06:59:41.727Z,19.54
2018-12-02T07:00:41.992Z,19.55
2018-12-02T07:01:41.813Z,19.55
2018-12-02T07:02:41.995Z,19.56
2018-12-02T07:03:41.812Z,19.56
2018-12-02T07:04:41.650Z,19.56
2018-12-02T07:05:41.800Z,19.56
2018-12-02T07:06:41.690Z,19.56
2018-12-02T07:07:41.710Z,19.57
2018-12-02T07:08:41.633Z,19.58
2018-12-02T07:09:41.742Z,19.57
2018-12-02T07:10:41.858Z,19.58
2018-12-02T07:11:41.680Z,19.58
2018-12-02T07:12:41.533Z,19.59
2018-12-02T07:13:41.696Z,19.58
2018-12-02T07:14:42.101Z,19.6
2018-12-02T07:15:41.608Z,19.59
2018-12-02T07:16:41.918Z,19.6
2018-12-02T07:17:41.669Z,19.6
2018-12-02T07:18:41.982Z,19.6
2018-12-02T07:19:41.632Z,19.6
2018-12-02T07:20:42.662Z,19.61
2018-12-02T07:21:42.229Z,19.62
2018-12-02T07:22:41.818Z,19.62
2018-12-02T07:23:42.079Z,19.62
2018-12-02T07:24:41.632Z,19.63
2018-12-02T07:25:42.057Z,19.63
2018-12-02T07:26:41.894Z,19.64
2018-12-02T07:27:41.672Z,19.64
2018-12-02T07:28:41.867Z,19.64
2018-12-02T07:29:41.625Z,19.64
2018-12-02T07:30:41.839Z,19.64
2018-12-02T07:31:41.652Z,19.64
2018-12-02T07:32:41.849Z,19.65
2018-12-02T07:33:42.008Z,19.65
2018-12-02T07:34:42.638Z,19.66
2018-12-02T07:35:41.845Z,19.67
2018-12-02T07:36:41.622Z,19.67
2018-12-02T07:37:41.489Z,19.67
2018-12-02T07:38:41.733Z,19.67
2018-12-02T07:39:41.641Z,19.67
2018-12-02T07:40:41.556Z,19.68
2018-12-02T07:41:41.794Z,19.69
2018-12-02T07:42:41.660Z,19.69
2018-12-02T07:43:41.638Z,19.69
2018-12-02T07:44:42.197Z,19.7
2018-12-02T07:45:41.714Z,19.7
2018-12-02T07:46:41.557Z,19.7
2018-12-02T07:47:41.699Z,19.7
2018-12-02T07:48:41.753Z,19.71
2018-12-02T07:49:41.620Z,19.71
2018-12-02T07:50:41.837Z,19.72
2018-12-02T07:51:41.645Z,19.72
2018-12-02T07:52:41.752Z,19.71
2018-12-02T07:53:41.821Z,19.72
2018-12-02T07:54:41.597Z,19.72
2018-12-02T07:55:41.759Z,19.72
2018-12-02T07:56:41.615Z,19.73
2018-12-02T07:57:41.664Z,19.72
2018-12-02T07:58:41.835Z,19.73
2018-12-02T07:59:41.727Z,19.73
2018-12-02T08:00:41.721Z,19.74
2018-12-02T08:01:41.691Z,19.74
2018-12-02T08:02:41.950Z,19.74
2018-12-02T08:03:41.616Z,19.74
2018-12-02T08:04:41.957Z,19.74
2018-12-02T08:05:42.177Z,19.75
2018-12-02T08:06:41.622Z,19.74
2018-12-02T08:07:42.068Z,19.75
2018-12-02T08:08:41.604Z,19.75
2018-12-02T08:09:42.102Z,19.76
2018-12-02T08:10:41.648Z,19.75
2018-12-02T08:11:41.768Z,19.75
2018-12-02T08:12:41.835Z,19.75
2018-12-02T08:13:41.603Z,19.76
2018-12-02T08:14:41.896Z,19.77
2018-12-02T08:15:41.599Z,19.77
2018-12-02T08:16:41.964Z,19.78
2018-12-02T08:17:41.620Z,19.78
2018-12-02T08:18:41.942Z,19.79
2018-12-02T08:19:41.685Z,19.79
2018-12-02T08:20:41.735Z,19.78
2018-12-02T08:21:41.637Z,19.79
2018-12-02T08:22:41.514Z,19.79
2018-12-02T08:23:41.970Z,19.8
2018-12-02T08:24:41.530Z,19.8
2018-12-02T08:25:41.681Z,19.8
2018-12-02T08:26:41.581Z,19.79
2018-12-02T08:27:41.649Z,19.79
2018-12-02T08:28:41.810Z,19.79
2018-12-02T08:29:41.604Z,19.8
2018-12-02T08:30:42.114Z,19.8
2018-12-02T08:31:42.002Z,19.8
2018-12-02T08:32:41.825Z,19.81
2018-12-02T08:33:41.681Z,19.81
2018-12-02T08:34:41.994Z,19.81
2018-12-02T08:35:41.759Z,19.81
2018-12-02T08:36:41.774Z,19.82
2018-12-02T08:37:42.161Z,19.82
2018-12-02T08:38:41.697Z,19.81
2018-12-02T08:39:41.974Z,19.82
2018-12-02T08:40:41.546Z,19.82
2018-12-02T08:41:41.994Z,19.83
2018-12-02T08:42:41.932Z,19.82
2018-12-02T08:43:42.102Z,19.83
2018-12-02T08:44:41.914Z,19.83
2018-12-02T08:45:42.023Z,19.83
2018-12-02T08:46:41.679Z,19.83
2018-12-02T08:47:41.699Z,19.84
2018-12-02T08:48:42.025Z,19.87
2018-12-02T08:49:43.470Z,19.84
2018-12-02T08:50:41.829Z,19.84
2018-12-02T08:51:41.847Z,19.83
2018-12-02T08:52:41.649Z,19.82
2018-12-02T08:53:41.712Z,19.85
2018-12-02T08:54:41.744Z,19.85
2018-12-02T08:55:42.088Z,19.89
2018-12-02T08:56:41.762Z,19.89
2018-12-02T08:57:41.640Z,19.9
2018-12-02T08:58:41.631Z,19.91
2018-12-02T08:59:41.908Z,19.91
2018-12-02T09:00:41.813Z,19.92
2018-12-02T09:01:41.560Z,19.93
2018-12-02T09:02:41.794Z,19.94
2018-12-02T09:03:41.977Z,19.95
2018-12-02T09:04:42.049Z,19.97
2018-12-02T09:05:41.965Z,19.97
2018-12-02T09:06:41.701Z,19.98
2018-12-02T09:07:42.119Z,19.98
2018-12-02T09:08:41.889Z,19.99
2018-12-02T09:09:41.993Z,20
2018-12-02T09:10:41.617Z,20
2018-12-02T09:11:41.881Z,20.01
2018-12-02T09:12:41.557Z,20.01
2018-12-02T09:13:41.654Z,20
2018-12-02T09:14:41.729Z,20.03
2018-12-02T09:15:42.502Z,20.04
2018-12-02T09:16:41.952Z,20.05
2018-12-02T09:17:41.604Z,20.08
2018-12-02T09:18:41.812Z,20.09
2018-12-02T09:19:41.644Z,20.11
2018-12-02T09:20:41.688Z,20.12
2018-12-02T09:21:41.650Z,20.13
2018-12-02T09:22:41.564Z,20.13
2018-12-02T09:23:47.210Z,20.15
2018-12-02T09:24:41.578Z,20.15
2018-12-02T09:25:41.683Z,20.16
2018-12-02T09:26:41.676Z,20.16
2018-12-02T09:27:41.835Z,20.18
2018-12-02T09:28:41.746Z,20.18
2018-12-02T09:29:41.632Z,20.2
2018-12-02T09:30:41.790Z,20.2
2018-12-02T09:31:41.719Z,20.2
2018-12-02T09:32:41.625Z,20.2
2018-12-02T09:33:41.581Z,20.22
2018-12-02T09:34:41.559Z,20.21
2018-12-02T09:35:41.672Z,20.2
2018-12-02T09:36:41.855Z,20.2
2018-12-02T09:37:41.685Z,20.2
2018-12-02T09:38:42.412Z,20.2
2018-12-02T09:39:41.644Z,20.2
2018-12-02T09:40:41.482Z,20.21
2018-12-02T09:41:41.713Z,20.2
2018-12-02T09:42:41.839Z,20.19
2018-12-02T09:43:41.600Z,20.2
2018-12-02T09:44:42.060Z,20.2
2018-12-02T09:45:42.133Z,20.19
2018-12-02T09:46:41.669Z,20.2
2018-12-02T09:47:41.704Z,20.19
2018-12-02T09:48:42.106Z,20.2
2018-12-02T09:49:41.622Z,20.19
2018-12-02T09:50:41.929Z,20.19
2018-12-02T09:51:41.472Z,20.19
2018-12-02T09:52:42.066Z,20.18
2018-12-02T09:53:41.794Z,20.18
2018-12-02T09:54:41.586Z,20.17
2018-12-02T09:55:42.095Z,20.17
2018-12-02T09:56:41.946Z,20.16
2018-12-02T09:57:42.005Z,20.17
2018-12-02T09:58:41.731Z,20.17
2018-12-02T09:59:41.741Z,20.16
2018-12-02T10:00:41.848Z,20.16
2018-12-02T10:01:41.534Z,20.16
2018-12-02T10:02:41.762Z,20.15
2018-12-02T10:03:41.601Z,20.16
2018-12-02T10:04:41.664Z,20.13
2018-12-02T10:05:42.418Z,20.13
2018-12-02T10:06:42.490Z,20.11
2018-12-02T10:07:41.622Z,20.1
2018-12-02T10:08:41.631Z,20.09
2018-12-02T10:09:42.145Z,20.07
2018-12-02T10:10:41.661Z,20.1
2018-12-02T10:11:41.639Z,20.11
2018-12-02T10:12:44.897Z,20.11
2018-12-02T10:13:41.827Z,20.12
2018-12-02T10:14:41.713Z,20.12
2018-12-02T10:15:41.973Z,20.13
2018-12-02T10:16:41.623Z,20.12
2018-12-02T10:17:41.710Z,20.12
2018-12-02T10:18:41.558Z,20.13
2018-12-02T10:19:41.800Z,20.15
2018-12-02T10:20:41.617Z,20.14
2018-12-02T10:21:42.030Z,20.15
2018-12-02T10:22:41.664Z,20.17
2018-12-02T10:23:42.266Z,20.17
2018-12-02T10:24:41.730Z,20.17
2018-12-02T10:25:41.581Z,20.18
2018-12-02T10:26:41.654Z,20.18
2018-12-02T10:27:41.714Z,20.19
2018-12-02T10:28:42.948Z,20.19
2018-12-02T10:29:41.789Z,20.2
2018-12-02T10:30:41.748Z,20.21
2018-12-02T10:31:41.970Z,20.21
2018-12-02T10:32:42.900Z,20.21
2018-12-02T10:33:41.730Z,20.23
2018-12-02T10:34:42.276Z,20.21
2018-12-02T10:35:41.967Z,20.22
2018-12-02T10:36:42.560Z,20.23
2018-12-02T10:37:41.718Z,20.25
2018-12-02T10:38:41.871Z,20.24
2018-12-02T10:39:41.556Z,20.24
2018-12-02T10:40:42.077Z,20.25
2018-12-02T10:41:41.540Z,20.26
2018-12-02T10:42:41.889Z,20.26
2018-12-02T10:43:41.798Z,20.28
2018-12-02T10:44:41.742Z,20.27
2018-12-02T10:45:41.743Z,20.28
2018-12-02T10:46:43.890Z,20.29
2018-12-02T10:47:41.671Z,20.31
2018-12-02T10:48:42.011Z,20.3
2018-12-02T10:49:41.680Z,20.3
2018-12-02T10:50:41.723Z,20.3
2018-12-02T10:51:41.570Z,20.29
2018-12-02T10:52:41.685Z,20.3
2018-12-02T10:53:42.075Z,20.29
2018-12-02T10:54:41.726Z,20.29
2018-12-02T10:55:41.607Z,20.29
2018-12-02T10:56:41.610Z,20.29
2018-12-02T10:57:41.704Z,20.28
2018-12-02T10:58:41.648Z,20.28
2018-12-02T10:59:41.747Z,20.31
2018-12-02T11:00:41.649Z,20.3
2018-12-02T11:01:41.797Z,20.32
2018-12-02T11:02:41.863Z,20.34
2018-12-02T11:03:42.508Z,20.33
2018-12-02T11:04:42.103Z,20.33
2018-12-02T11:05:43.258Z,20.33
2018-12-02T11:06:42.918Z,20.33
2018-12-02T11:07:42.708Z,20.33
2018-12-02T11:08:42.750Z,20.33
2018-12-02T11:09:42.338Z,20.33
2018-12-02T11:10:41.992Z,20.33
2018-12-02T11:11:42.132Z,20.33
2018-12-02T11:12:42.898Z,20.34
2018-12-02T11:13:42.259Z,20.34
2018-12-02T11:14:41.945Z,20.35
2018-12-02T11:15:41.727Z,20.35
2018-12-02T11:16:43.316Z,20.35
2018-12-02T11:17:42.372Z,20.35
2018-12-02T11:18:42.069Z,20.36
2018-12-02T11:19:42.449Z,20.36
2018-12-02T11:20:42.162Z,20.4
2018-12-02T11:21:41.752Z,20.41
2018-12-02T11:22:42.039Z,20.47
2018-12-02T11:23:43.050Z,20.45
2018-12-02T11:24:42.067Z,20.44
2018-12-02T11:25:41.822Z,20.45
2018-12-02T11:26:41.814Z,20.44
2018-12-02T11:27:41.650Z,20.45
2018-12-02T11:28:41.959Z,20.48
2018-12-02T11:29:42.835Z,20.5
2018-12-02T11:30:41.693Z,20.53
2018-12-02T11:31:41.554Z,20.51
2018-12-02T11:32:41.683Z,20.5
2018-12-02T11:33:41.690Z,20.5
2018-12-02T11:34:41.516Z,20.49
2018-12-02T11:35:41.667Z,20.5
2018-12-02T11:36:41.722Z,20.51
2018-12-02T11:37:41.604Z,20.5
2018-12-02T11:38:41.523Z,20.49
2018-12-02T11:39:41.834Z,20.5
2018-12-02T11:40:41.843Z,20.49
2018-12-02T11:41:41.626Z,20.5
2018-12-02T11:42:41.669Z,20.49
2018-12-02T11:43:41.854Z,20.49
2018-12-02T11:44:41.758Z,20.5
2018-12-02T11:45:41.878Z,20.5
2018-12-02T11:46:41.729Z,20.5
2018-12-02T11:47:41.489Z,20.49
2018-12-02T11:48:41.621Z,20.49
2018-12-02T11:49:42.364Z,20.49
2018-12-02T11:50:41.640Z,20.5
2018-12-02T11:51:41.889Z,20.5
2018-12-02T11:52:42.199Z,20.5
2018-12-02T11:53:41.995Z,20.52
2018-12-02T11:54:41.711Z,20.5
2018-12-02T11:55:42.012Z,20.5
2018-12-02T11:56:41.564Z,20.5
2018-12-02T11:57:41.607Z,20.5
2018-12-02T11:58:41.618Z,20.5
2018-12-02T11:59:41.734Z,20.49
2018-12-02T12:00:41.759Z,20.5
2018-12-02T12:01:41.621Z,20.5
2018-12-02T12:02:41.745Z,20.5
2018-12-02T12:03:41.450Z,20.5
2018-12-02T12:04:41.671Z,20.49
2018-12-02T12:05:41.644Z,20.49
2018-12-02T12:06:41.960Z,20.52
2018-12-02T12:07:41.999Z,20.51
2018-12-02T12:08:41.941Z,20.49
2018-12-02T12:09:41.828Z,20.48
2018-12-02T12:10:42.180Z,20.48
2018-12-02T12:11:41.500Z,20.47
2018-12-02T12:12:41.620Z,20.46
2018-12-02T12:13:41.619Z,20.45
2018-12-02T12:14:41.712Z,20.45
2018-12-02T12:15:41.655Z,20.45
2018-12-02T12:16:41.866Z,20.45
2018-12-02T12:17:41.879Z,20.43
2018-12-02T12:18:41.772Z,20.43
2018-12-02T12:19:42.046Z,20.44
2018-12-02T12:20:42.401Z,20.43
2018-12-02T12:21:41.450Z,20.43
2018-12-02T12:22:42.856Z,20.42
2018-12-02T12:23:41.543Z,20.41
2018-12-02T12:24:41.738Z,20.42
2018-12-02T12:25:41.618Z,20.41
2018-12-02T12:26:41.722Z,20.4
2018-12-02T12:27:41.645Z,20.4
2018-12-02T12:28:41.960Z,20.4
2018-12-02T12:29:41.766Z,20.39
2018-12-02T12:30:41.726Z,20.39
2018-12-02T12:31:41.621Z,20.38
2018-12-02T12:32:41.994Z,20.39
2018-12-02T12:33:41.764Z,20.38
2018-12-02T12:34:41.431Z,20.38
2018-12-02T12:35:41.680Z,20.38
2018-12-02T12:36:42.368Z,20.37
2018-12-02T12:37:41.625Z,20.37
2018-12-02T12:38:41.473Z,20.37
2018-12-02T12:39:41.592Z,20.35
2018-12-02T12:40:41.565Z,20.36
2018-12-02T12:41:41.539Z,20.35
2018-12-02T12:42:41.544Z,20.34
2018-12-02T12:43:41.583Z,20.35
2018-12-02T12:44:41.620Z,20.33
2018-12-02T12:45:41.620Z,20.32
2018-12-02T12:46:41.699Z,20.31
2018-12-02T12:47:41.730Z,20.3
2018-12-02T12:48:41.857Z,20.29
2018-12-02T12:49:41.701Z,20.29
2018-12-02T12:50:42.110Z,20.28
2018-12-02T12:51:41.577Z,20.28
2018-12-02T12:52:41.575Z,20.27
2018-12-02T12:53:41.640Z,20.26
2018-12-02T12:54:41.445Z,20.25
2018-12-02T12:55:41.962Z,20.26
2018-12-02T12:56:41.684Z,20.26